createdAt,value
2019-04-06T00:00:07.390Z,20.72
2019-04-06T00:01:26.172Z,19.27
2019-04-06T00:02:35.835Z,21.52
2019-04-06T00:03:40.793Z,20.43
2019-04-06T00:04:45.740Z,20.00
2019-04-06T00:05:51.020Z,19.27
2019-04-06T00:06:56.442Z,20.50
2019-04-06T00:08:01.329Z,20.57
2019-04-06T00:09:07.657Z,19.80
2019-04-06T00:10:12.996Z,20.10
2019-04-06T00:11:17.587Z,19.67
2019-04-06T00:12:22.219Z,19.50
2019-04-06T00:13:27.459Z,20.30
2019-04-06T00:14:32.477Z,19.85
2019-04-06T00:15:37.716Z,18.85
2019-04-06T00:16:42.677Z,19.25
2019-04-06T00:17:47.610Z,20.37
2019-04-06T00:18:52.807Z,20.75
2019-04-06T00:19:57.206Z,19.07
2019-04-06T00:21:02.486Z,19.12
2019-04-06T00:22:08.963Z,19.30
2019-04-06T00:23:15.142Z,18.77
2019-04-06T00:24:20.029Z,18.35
2019-04-06T00:25:24.991Z,19.10
2019-04-06T00:26:29.428Z,18.27
2019-04-06T00:27:34.670Z,18.95
2019-04-06T00:28:39.593Z,17.85
2019-04-06T00:29:44.599Z,19.05
2019-04-06T00:30:59.346Z,18.12
2019-04-06T00:32:14.694Z,18.60
2019-04-06T00:33:20.250Z,17.50
2019-04-06T00:34:24.848Z,18.87
2019-04-06T00:35:29.683Z,18.70
2019-04-06T00:36:34.610Z,17.62
2019-04-06T00:37:39.296Z,17.75
2019-04-06T00:38:44.254Z,19.20
2019-04-06T00:39:49.736Z,19.50
2019-04-06T00:40:54.935Z,18.82
2019-04-06T00:41:59.680Z,18.70
2019-04-06T00:43:04.677Z,19.37
2019-04-06T00:44:09.860Z,18.17
2019-04-06T00:45:14.820Z,18.70
2019-04-06T00:46:19.853Z,18.98
2019-04-06T00:47:24.802Z,18.17
2019-04-06T00:48:29.979Z,18.60
2019-04-06T00:49:35.229Z,18.07
2019-04-06T00:50:40.420Z,18.67
2019-04-06T00:51:45.500Z,18.65
2019-04-06T00:52:53.397Z,19.32
2019-04-06T00:53:58.927Z,18.87
2019-04-06T00:55:03.922Z,19.07
2019-04-06T00:56:08.523Z,18.82
2019-04-06T00:57:13.481Z,18.70
2019-04-06T00:58:18.608Z,19.25
2019-04-06T00:59:23.863Z,17.62
2019-04-06T01:00:28.811Z,19.05
2019-04-06T01:01:34.065Z,18.52
2019-04-06T01:02:39.045Z,19.45
2019-04-06T01:03:44.467Z,18.80
2019-04-06T01:04:49.718Z,19.00
2019-04-06T01:05:54.725Z,19.25
2019-04-06T01:07:00.021Z,19.40
2019-04-06T01:08:04.711Z,18.85
2019-04-06T01:09:11.005Z,18.40
2019-04-06T01:10:16.482Z,18.65
2019-04-06T01:11:20.896Z,18.70
2019-04-06T01:12:25.808Z,18.35
2019-04-06T01:13:30.466Z,18.60
2019-04-06T01:14:35.716Z,18.60
2019-04-06T01:15:41.062Z,19.05
2019-04-06T01:16:45.721Z,18.98
2019-04-06T01:17:51.057Z,19.10
2019-04-06T01:18:56.177Z,18.87
2019-04-06T01:20:01.167Z,18.07
2019-04-06T01:21:05.922Z,19.70
2019-04-06T01:22:11.295Z,19.17
2019-04-06T01:23:16.257Z,18.98
2019-04-06T01:24:21.394Z,19.10
2019-04-06T01:25:26.566Z,18.07
2019-04-06T01:26:31.529Z,17.25
2019-04-06T01:27:36.198Z,18.48
2019-04-06T01:28:41.492Z,18.60
2019-04-06T01:29:46.351Z,17.65
2019-04-06T01:30:51.642Z,18.07
2019-04-06T01:31:57.163Z,17.67
2019-04-06T01:33:02.419Z,18.10
2019-04-06T01:34:07.419Z,18.20
2019-04-06T01:35:12.099Z,19.00
2019-04-06T01:36:17.678Z,18.62
2019-04-06T01:37:22.932Z,18.27
2019-04-06T01:38:27.770Z,18.12
2019-04-06T01:39:32.749Z,18.48
2019-04-06T01:40:38.302Z,19.27
2019-04-06T01:41:43.837Z,18.82
2019-04-06T01:42:49.172Z,18.15
2019-04-06T01:43:54.379Z,17.62
2019-04-06T01:44:59.402Z,18.45
2019-04-06T01:46:04.326Z,18.20
2019-04-06T01:47:09.063Z,18.10
2019-04-06T01:48:13.741Z,17.92
2019-04-06T01:49:18.555Z,17.82
2019-04-06T01:50:23.481Z,17.70
2019-04-06T01:51:28.759Z,18.30
2019-04-06T01:52:33.584Z,17.45
2019-04-06T01:53:38.551Z,17.67
2019-04-06T01:54:43.512Z,17.52
2019-04-06T01:55:48.255Z,18.67
2019-04-06T01:56:53.616Z,18.15
2019-04-06T01:57:58.862Z,18.50
2019-04-06T01:59:03.770Z,18.82
2019-04-06T02:00:11.361Z,17.77
2019-04-06T02:01:32.106Z,18.60
2019-04-06T02:02:38.284Z,16.15
2019-04-06T02:03:43.371Z,17.02
2019-04-06T02:04:48.457Z,17.60
2019-04-06T02:05:53.317Z,18.17
2019-04-06T02:06:58.848Z,17.05
2019-04-06T02:08:03.894Z,17.52
2019-04-06T02:09:09.280Z,17.00
2019-04-06T02:10:14.743Z,16.27
2019-04-06T02:11:19.429Z,17.12
2019-04-06T02:12:24.130Z,18.27
2019-04-06T02:13:28.840Z,17.35
2019-04-06T02:14:34.037Z,17.17
2019-04-06T02:15:39.027Z,16.52
2019-04-06T02:16:43.795Z,16.80
2019-04-06T02:17:51.102Z,17.67
2019-04-06T02:18:55.977Z,17.75
2019-04-06T02:20:00.631Z,17.65
2019-04-06T02:21:05.310Z,16.65
2019-04-06T02:22:11.248Z,18.05
2019-04-06T02:23:16.371Z,16.85
2019-04-06T02:24:21.545Z,17.57
2019-04-06T02:25:26.779Z,17.27
2019-04-06T02:26:31.670Z,16.60
2019-04-06T02:27:36.598Z,17.00
2019-04-06T02:28:41.807Z,16.42
2019-04-06T02:29:48.711Z,17.05
2019-04-06T02:31:07.749Z,16.82
2019-04-06T02:32:31.627Z,17.07
2019-04-06T02:33:47.044Z,17.85
2019-04-06T02:35:07.291Z,16.67
2019-04-06T02:36:34.113Z,16.67
2019-04-06T02:37:57.710Z,16.55
2019-04-06T02:39:24.509Z,15.65
2019-04-06T02:40:43.592Z,16.17
2019-04-06T02:41:52.648Z,15.83
2019-04-06T02:43:10.590Z,16.73
2019-04-06T02:44:15.554Z,16.23
2019-04-06T02:45:20.519Z,17.62
2019-04-06T02:46:25.202Z,16.52
2019-04-06T02:47:30.237Z,17.32
2019-04-06T02:48:35.449Z,16.32
2019-04-06T02:49:40.433Z,16.80
2019-04-06T02:50:45.430Z,17.57
2019-04-06T02:51:50.771Z,16.67
2019-04-06T02:52:55.521Z,17.30
2019-04-06T02:54:00.495Z,17.12
2019-04-06T02:55:05.262Z,17.77
2019-04-06T02:56:10.318Z,17.05
2019-04-06T02:57:18.476Z,17.20
2019-04-06T02:58:24.752Z,17.30
2019-04-06T02:59:30.102Z,16.57
2019-04-06T03:00:35.001Z,16.93
2019-04-06T03:01:39.685Z,18.45
2019-04-06T03:02:44.375Z,17.25
2019-04-06T03:03:49.104Z,16.77
2019-04-06T03:04:53.813Z,17.80
2019-04-06T03:05:58.905Z,16.77
2019-04-06T03:07:03.414Z,16.67
2019-04-06T03:08:08.325Z,16.95
2019-04-06T03:09:13.558Z,16.67
2019-04-06T03:10:18.314Z,17.27
2019-04-06T03:11:23.312Z,16.65
2019-04-06T03:12:28.660Z,16.62
2019-04-06T03:13:33.890Z,16.30
2019-04-06T03:14:38.859Z,17.37
2019-04-06T03:15:44.196Z,16.40
2019-04-06T03:16:51.606Z,16.97
2019-04-06T03:17:56.857Z,15.90
2019-04-06T03:19:02.089Z,16.10
2019-04-06T03:20:06.923Z,16.20
2019-04-06T03:21:11.880Z,16.95
2019-04-06T03:22:17.125Z,17.07
2019-04-06T03:23:24.645Z,17.20
2019-04-06T03:24:28.969Z,17.10
2019-04-06T03:25:33.578Z,17.55
2019-04-06T03:26:38.539Z,16.67
2019-04-06T03:27:43.506Z,16.82
2019-04-06T03:28:48.585Z,16.80
2019-04-06T03:29:58.506Z,16.85
2019-04-06T03:31:00.886Z,16.67
2019-04-06T03:32:05.922Z,15.80
2019-04-06T03:33:11.174Z,16.70
2019-04-06T03:34:20.672Z,16.55
2019-04-06T03:35:23.669Z,16.07
2019-04-06T03:36:28.346Z,16.52
2019-04-06T03:37:33.755Z,16.42
2019-04-06T03:38:39.297Z,16.55
2019-04-06T03:39:44.367Z,16.48
2019-04-06T03:40:49.420Z,16.20
2019-04-06T03:41:54.970Z,16.52
2019-04-06T03:43:00.204Z,16.45
2019-04-06T03:44:05.323Z,16.85
2019-04-06T03:45:10.499Z,15.72
2019-04-06T03:46:15.699Z,15.72
2019-04-06T03:47:20.893Z,16.45
2019-04-06T03:48:26.640Z,16.27
2019-04-06T03:49:34.019Z,16.35
2019-04-06T03:50:38.822Z,16.12
2019-04-06T03:51:43.586Z,16.57
2019-04-06T03:52:48.591Z,16.65
2019-04-06T03:53:53.582Z,16.30
2019-04-06T03:54:58.830Z,16.57
2019-04-06T03:56:03.579Z,17.02
2019-04-06T03:57:15.856Z,16.62
2019-04-06T03:58:15.244Z,16.45
2019-04-06T03:59:20.210Z,17.50
2019-04-06T04:00:25.181Z,16.52
2019-04-06T04:01:30.221Z,16.17
2019-04-06T04:02:35.433Z,16.17
2019-04-06T04:03:40.473Z,16.20
2019-04-06T04:04:45.641Z,15.53
2019-04-06T04:05:50.644Z,16.57
2019-04-06T04:06:56.016Z,16.32
2019-04-06T04:08:01.088Z,16.12
2019-04-06T04:09:06.707Z,16.23
2019-04-06T04:10:14.465Z,16.80
2019-04-06T04:11:19.426Z,15.95
2019-04-06T04:12:24.082Z,16.17
2019-04-06T04:13:29.087Z,16.57
2019-04-06T04:14:34.226Z,16.52
2019-04-06T04:15:39.299Z,16.42
2019-04-06T04:16:44.422Z,17.07
2019-04-06T04:17:49.227Z,16.35
2019-04-06T04:18:54.648Z,15.15
2019-04-06T04:19:59.972Z,16.75
2019-04-06T04:21:04.788Z,16.95
2019-04-06T04:22:10.186Z,17.23
2019-04-06T04:23:18.146Z,16.55
2019-04-06T04:24:23.301Z,16.42
2019-04-06T04:25:28.532Z,16.60
2019-04-06T04:26:34.207Z,16.55
2019-04-06T04:27:41.509Z,16.77
2019-04-06T04:28:46.428Z,17.60
2019-04-06T04:29:51.435Z,17.20
2019-04-06T04:30:56.639Z,17.27
2019-04-06T04:32:01.282Z,17.70
2019-04-06T04:33:06.008Z,17.92
2019-04-06T04:34:10.691Z,16.80
2019-04-06T04:35:18.343Z,16.80
2019-04-06T04:36:22.472Z,16.87
2019-04-06T04:37:27.455Z,17.00
2019-04-06T04:38:32.081Z,17.70
2019-04-06T04:39:36.991Z,16.75
2019-04-06T04:40:42.171Z,16.48
2019-04-06T04:41:47.331Z,17.17
2019-04-06T04:42:52.050Z,17.98
2019-04-06T04:43:56.739Z,16.77
2019-04-06T04:45:01.708Z,17.40
2019-04-06T04:46:06.151Z,16.95
2019-04-06T04:47:11.121Z,17.73
2019-04-06T04:48:16.737Z,17.87
2019-04-06T04:49:21.648Z,17.30
2019-04-06T04:50:26.895Z,17.70
2019-04-06T04:51:31.599Z,17.75
2019-04-06T04:52:36.323Z,17.85
2019-04-06T04:53:41.693Z,18.25
2019-04-06T04:54:46.986Z,17.65
2019-04-06T04:55:52.226Z,17.15
2019-04-06T04:56:57.385Z,18.02
2019-04-06T04:58:02.777Z,19.02
2019-04-06T04:59:07.688Z,18.12
2019-04-06T05:00:12.371Z,17.45
2019-04-06T05:01:17.235Z,18.37
2019-04-06T05:02:22.466Z,18.12
2019-04-06T05:03:27.650Z,17.85
2019-04-06T05:04:32.662Z,18.27
2019-04-06T05:05:38.216Z,18.65
2019-04-06T05:06:43.403Z,17.92
2019-04-06T05:07:48.715Z,18.50
2019-04-06T05:08:53.965Z,18.37
2019-04-06T05:09:58.864Z,19.85
2019-04-06T05:11:03.530Z,17.82
2019-04-06T05:12:08.518Z,19.82
2019-04-06T05:13:15.005Z,19.05
2019-04-06T05:14:55.199Z,19.90
2019-04-06T05:16:11.647Z,18.00
2019-04-06T05:17:16.601Z,19.80
2019-04-06T05:18:21.520Z,19.37
2019-04-06T05:19:26.462Z,19.20
2019-04-06T05:20:31.425Z,19.60
2019-04-06T05:21:36.656Z,19.00
2019-04-06T05:22:41.475Z,21.73
2019-04-06T05:23:46.693Z,20.82
2019-04-06T05:24:51.493Z,20.80
2019-04-06T05:25:56.735Z,20.82
2019-04-06T05:27:02.233Z,20.80
2019-04-06T05:28:06.894Z,20.37
2019-04-06T05:29:11.901Z,20.90
2019-04-06T05:30:16.770Z,21.42
2019-04-06T05:31:21.478Z,21.40
2019-04-06T05:32:26.465Z,21.57
2019-04-06T05:33:31.689Z,21.25
2019-04-06T05:34:36.853Z,21.00
2019-04-06T05:35:41.840Z,21.37
2019-04-06T05:36:46.578Z,22.32
2019-04-06T05:37:51.448Z,21.48
2019-04-06T05:38:56.358Z,20.68
2019-04-06T05:40:01.372Z,22.85
2019-04-06T05:41:06.456Z,21.05
2019-04-06T05:42:11.561Z,22.45
2019-04-06T05:43:16.897Z,21.05
2019-04-06T05:44:21.830Z,22.32
2019-04-06T05:45:26.687Z,21.45
2019-04-06T05:46:31.659Z,21.80
2019-04-06T05:47:36.629Z,22.85
2019-04-06T05:48:41.376Z,21.48
2019-04-06T05:49:46.324Z,22.50
2019-04-06T05:50:51.275Z,21.87
2019-04-06T05:51:56.689Z,21.57
2019-04-06T05:53:01.811Z,21.00
2019-04-06T05:54:06.502Z,22.02
2019-04-06T05:55:11.444Z,20.57
2019-04-06T05:56:16.953Z,21.62
2019-04-06T05:57:22.247Z,21.40
2019-04-06T05:58:27.387Z,22.02
2019-04-06T05:59:32.767Z,21.68
2019-04-06T06:00:40.117Z,22.80
2019-04-06T06:01:44.486Z,23.07
2019-04-06T06:02:49.892Z,22.00
2019-04-06T06:03:54.882Z,22.80
2019-04-06T06:05:01.205Z,22.05
2019-04-06T06:06:06.390Z,21.37
2019-04-06T06:07:11.503Z,20.88
2019-04-06T06:08:16.680Z,20.90
2019-04-06T06:09:21.960Z,22.10
2019-04-06T06:10:26.665Z,22.15
2019-04-06T06:11:31.834Z,21.82
2019-04-06T06:12:37.106Z,23.15
2019-04-06T06:13:42.057Z,22.67
2019-04-06T06:14:46.653Z,23.80
2019-04-06T06:15:51.788Z,22.73
2019-04-06T06:16:56.998Z,21.97
2019-04-06T06:18:01.966Z,22.52
2019-04-06T06:19:06.914Z,22.40
2019-04-06T06:20:11.552Z,21.37
2019-04-06T06:21:16.707Z,22.00
2019-04-06T06:22:21.601Z,22.58
2019-04-06T06:23:26.302Z,22.17
2019-04-06T06:24:31.513Z,21.73
2019-04-06T06:25:36.309Z,23.60
2019-04-06T06:26:41.521Z,23.18
2019-04-06T06:27:46.503Z,22.10
2019-04-06T06:28:51.492Z,22.05
2019-04-06T06:29:56.173Z,22.02
2019-04-06T06:31:00.850Z,21.95
2019-04-06T06:32:06.298Z,22.65
2019-04-06T06:33:11.292Z,21.97
2019-04-06T06:34:16.534Z,22.17
2019-04-06T06:35:23.568Z,22.82
2019-04-06T06:36:28.932Z,23.57
2019-04-06T06:37:33.933Z,22.87
2019-04-06T06:38:39.414Z,22.90
2019-04-06T06:39:44.470Z,23.50
2019-04-06T06:40:49.422Z,22.82
2019-04-06T06:41:54.395Z,22.98
2019-04-06T06:42:58.889Z,23.57
2019-04-06T06:44:03.845Z,24.05
2019-04-06T06:45:09.231Z,21.82
2019-04-06T06:46:14.546Z,22.70
2019-04-06T06:47:19.222Z,23.80
2019-04-06T06:48:24.523Z,23.40
2019-04-06T06:49:29.856Z,23.45
2019-04-06T06:50:35.066Z,24.07
2019-04-06T06:51:40.037Z,24.02
2019-04-06T06:52:44.981Z,23.87
2019-04-06T06:53:50.286Z,24.52
2019-04-06T06:54:55.540Z,24.27
2019-04-06T06:56:00.414Z,23.57
2019-04-06T06:57:05.087Z,23.77
2019-04-06T06:58:10.074Z,25.25
2019-04-06T06:59:15.019Z,23.27
2019-04-06T07:00:19.994Z,23.25
2019-04-06T07:01:25.201Z,23.00
2019-04-06T07:02:30.078Z,23.15
2019-04-06T07:03:35.387Z,23.00
2019-04-06T07:04:40.859Z,23.50
2019-04-06T07:05:45.866Z,23.75
2019-04-06T07:06:53.075Z,23.40
2019-04-06T07:07:58.090Z,23.10
2019-04-06T07:09:05.075Z,23.45
2019-04-06T07:10:10.134Z,23.10
2019-04-06T07:11:14.832Z,24.20
2019-04-06T07:12:19.515Z,24.30
2019-04-06T07:13:24.534Z,23.38
2019-04-06T07:14:30.565Z,22.35
2019-04-06T07:15:35.536Z,23.47
2019-04-06T07:16:40.496Z,24.35
2019-04-06T07:17:45.750Z,23.57
2019-04-06T07:18:50.894Z,23.38
2019-04-06T07:19:56.475Z,23.27
2019-04-06T07:21:01.599Z,23.80
2019-04-06T07:22:06.298Z,23.38
2019-04-06T07:23:11.487Z,24.02
2019-04-06T07:24:16.417Z,24.40
2019-04-06T07:25:21.202Z,23.87
2019-04-06T07:26:26.634Z,22.82
2019-04-06T07:27:31.888Z,23.70
2019-04-06T07:28:39.004Z,23.25
2019-04-06T07:29:43.530Z,24.72
2019-04-06T07:30:48.553Z,24.12
2019-04-06T07:31:53.893Z,24.30
2019-04-06T07:32:58.896Z,24.18
2019-04-06T07:34:03.583Z,23.77
2019-04-06T07:35:08.377Z,24.87
2019-04-06T07:36:13.644Z,24.43
2019-04-06T07:37:18.835Z,24.18
2019-04-06T07:38:23.936Z,23.62
2019-04-06T07:39:29.049Z,23.57
2019-04-06T07:40:34.128Z,24.15
2019-04-06T07:41:39.378Z,23.87
2019-04-06T07:42:44.134Z,24.55
2019-04-06T07:43:49.159Z,23.95
2019-04-06T07:44:53.967Z,24.90
2019-04-06T07:45:58.592Z,23.67
2019-04-06T07:47:03.968Z,24.43
2019-04-06T07:48:08.957Z,23.50
2019-04-06T07:49:17.015Z,24.43
2019-04-06T07:50:21.621Z,22.93
2019-04-06T07:51:29.643Z,25.08
2019-04-06T07:52:34.849Z,24.55
2019-04-06T07:53:39.810Z,24.40
2019-04-06T07:54:45.046Z,23.30
2019-04-06T07:55:49.770Z,22.30
2019-04-06T07:56:54.594Z,23.12
2019-04-06T07:57:59.595Z,23.10
2019-04-06T07:59:05.052Z,24.90
2019-04-06T08:00:09.715Z,22.90
2019-04-06T08:01:15.146Z,22.65
2019-04-06T08:02:20.595Z,22.65
2019-04-06T08:03:25.325Z,23.87
2019-04-06T08:04:30.121Z,24.75
2019-04-06T08:05:34.822Z,22.02
2019-04-06T08:06:40.242Z,23.73
2019-04-06T08:07:45.461Z,24.05
2019-04-06T08:08:50.609Z,22.75
2019-04-06T08:09:55.472Z,23.27
2019-04-06T08:11:00.201Z,24.75
2019-04-06T08:12:05.770Z,23.55
2019-04-06T08:13:11.307Z,22.70
2019-04-06T08:14:16.292Z,24.90
2019-04-06T08:15:21.261Z,23.27
2019-04-06T08:16:26.812Z,23.70
2019-04-06T08:17:34.206Z,22.07
2019-04-06T08:18:39.482Z,23.15
2019-04-06T08:19:44.099Z,23.75
2019-04-06T08:20:49.048Z,23.80
2019-04-06T08:21:54.265Z,22.50
2019-04-06T08:22:58.923Z,23.87
2019-04-06T08:24:03.579Z,23.70
2019-04-06T08:25:08.642Z,23.90
2019-04-06T08:26:13.307Z,23.55
2019-04-06T08:27:18.824Z,23.67
2019-04-06T08:28:23.173Z,23.80
2019-04-06T08:29:27.975Z,22.77
2019-04-06T08:30:44.413Z,22.45
2019-04-06T08:31:39.303Z,22.93
2019-04-06T08:32:44.247Z,22.75
2019-04-06T08:33:49.168Z,23.30
2019-04-06T08:34:53.761Z,22.62
2019-04-06T08:35:59.091Z,24.12
2019-04-06T08:37:04.495Z,22.10
2019-04-06T08:38:09.663Z,22.75
2019-04-06T08:39:14.687Z,22.55
2019-04-06T08:40:19.906Z,24.02
2019-04-06T08:41:24.900Z,22.82
2019-04-06T08:42:29.677Z,21.65
2019-04-06T08:43:34.953Z,22.25
2019-04-06T08:44:40.309Z,23.35
2019-04-06T08:45:45.211Z,22.82
2019-04-06T08:46:50.802Z,22.93
2019-04-06T08:47:55.492Z,21.23
2019-04-06T08:49:00.479Z,22.17
2019-04-06T08:50:06.061Z,21.33
2019-04-06T08:51:11.326Z,22.37
2019-04-06T08:52:16.740Z,22.15
2019-04-06T08:53:21.958Z,23.27
2019-04-06T08:54:27.193Z,23.32
2019-04-06T08:55:32.452Z,22.70
2019-04-06T08:56:37.723Z,22.02
2019-04-06T08:57:42.929Z,23.07
2019-04-06T08:58:47.884Z,21.77
2019-04-06T08:59:53.713Z,23.18
2019-04-06T09:00:59.054Z,22.52
2019-04-06T09:02:04.196Z,22.37
2019-04-06T09:03:09.571Z,23.15
2019-04-06T09:04:14.821Z,22.35
2019-04-06T09:05:20.110Z,22.52
2019-04-06T09:06:24.846Z,21.40
2019-04-06T09:07:29.823Z,22.80
2019-04-06T09:08:34.786Z,21.27
2019-04-06T09:09:40.053Z,21.68
2019-04-06T09:10:45.337Z,21.80
2019-04-06T09:11:50.691Z,22.75
2019-04-06T09:12:55.563Z,22.27
2019-04-06T09:14:00.127Z,22.65
2019-04-06T09:15:05.874Z,22.90
2019-04-06T09:16:10.839Z,21.10
2019-04-06T09:17:15.585Z,23.35
2019-04-06T09:18:20.547Z,23.62
2019-04-06T09:19:25.271Z,22.13
2019-04-06T09:20:29.923Z,23.47
2019-04-06T09:21:34.969Z,23.45
2019-04-06T09:22:40.217Z,22.82
2019-04-06T09:23:45.471Z,23.77
2019-04-06T09:24:50.511Z,22.60
2019-04-06T09:25:55.756Z,24.05
2019-04-06T09:27:00.640Z,25.23
2019-04-06T09:28:05.583Z,23.75
2019-04-06T09:29:21.872Z,23.42
2019-04-06T09:30:17.157Z,23.98
2019-04-06T09:31:22.221Z,25.12
2019-04-06T09:32:27.183Z,25.17
2019-04-06T09:33:32.121Z,25.85
2019-04-06T09:34:37.678Z,23.50
2019-04-06T09:35:42.558Z,25.62
2019-04-06T09:36:47.976Z,25.05
2019-04-06T09:37:52.873Z,24.40
2019-04-06T09:38:58.041Z,23.35
2019-04-06T09:40:03.301Z,25.02
2019-04-06T09:41:08.027Z,25.37
2019-04-06T09:42:13.329Z,24.45
2019-04-06T09:43:18.846Z,24.55
2019-04-06T09:44:45.757Z,24.32
2019-04-06T09:46:15.665Z,24.07
2019-04-06T09:47:30.876Z,24.23
2019-04-06T09:48:56.384Z,25.32
2019-04-06T09:50:38.784Z,23.20
2019-04-06T09:52:03.793Z,23.18
2019-04-06T09:53:42.955Z,23.25
2019-04-06T09:54:56.527Z,23.67
2019-04-06T09:56:20.627Z,24.10
2019-04-06T09:57:40.292Z,22.50
2019-04-06T09:59:03.980Z,22.87
2019-04-06T10:00:16.208Z,23.42
2019-04-06T10:01:38.865Z,23.18
2019-04-06T10:03:00.105Z,23.75
2019-04-06T10:04:27.104Z,24.18
2019-04-06T10:06:09.953Z,22.48
2019-04-06T10:07:32.153Z,22.85
2019-04-06T10:08:58.772Z,22.58
2019-04-06T10:10:28.397Z,22.13
2019-04-06T10:11:55.383Z,23.38
2019-04-06T10:13:17.610Z,22.87
2019-04-06T10:14:47.078Z,22.87
2019-04-06T10:16:20.359Z,21.87
2019-04-06T10:17:42.934Z,22.77
2019-04-06T10:19:05.638Z,21.50
2019-04-06T10:20:18.975Z,21.97
2019-04-06T10:21:51.774Z,22.98
2019-04-06T10:23:14.688Z,21.85
2019-04-06T10:24:32.960Z,23.50
2019-04-06T10:25:56.571Z,23.12
2019-04-06T10:27:29.917Z,23.05
2019-04-06T10:28:53.761Z,21.48
2019-04-06T10:30:18.524Z,23.05
2019-04-06T10:31:41.700Z,23.18
2019-04-06T10:33:08.641Z,22.85
2019-04-06T10:34:31.328Z,22.13
2019-04-06T10:35:54.466Z,22.40
2019-04-06T10:37:17.077Z,22.80
2019-04-06T10:38:45.115Z,23.57
2019-04-06T10:39:59.513Z,22.13
2019-04-06T10:41:15.000Z,24.37
2019-04-06T10:42:48.327Z,23.15
2019-04-06T10:44:12.855Z,22.17
2019-04-06T10:45:29.873Z,21.45
2019-04-06T10:46:50.651Z,22.95
2019-04-06T10:48:02.885Z,22.20
2019-04-06T10:49:21.271Z,21.85
2019-04-06T10:50:50.757Z,22.95
2019-04-06T10:52:13.110Z,21.52
2019-04-06T10:53:28.903Z,22.95
2019-04-06T10:54:43.687Z,22.45
2019-04-06T10:55:56.633Z,22.52
2019-04-06T10:57:19.352Z,22.07
2019-04-06T10:58:46.263Z,20.80
2019-04-06T11:00:16.024Z,21.65
2019-04-06T11:01:48.977Z,20.82
2019-04-06T11:03:12.717Z,20.90
2019-04-06T11:04:22.685Z,21.00
2019-04-06T11:05:40.337Z,22.30
2019-04-06T11:07:13.444Z,22.17
2019-04-06T11:08:37.193Z,21.15
2019-04-06T11:09:50.752Z,21.48
2019-04-06T11:11:16.374Z,22.25
2019-04-06T11:12:47.573Z,20.70
2019-04-06T11:14:14.467Z,21.10
2019-04-06T11:15:44.571Z,21.27
2019-04-06T11:17:07.409Z,22.05
2019-04-06T11:18:30.640Z,21.85
2019-04-06T11:20:02.295Z,22.45
2019-04-06T11:21:13.822Z,20.50
2019-04-06T11:22:47.100Z,20.90
2019-04-06T11:24:10.541Z,21.00
2019-04-06T11:25:21.107Z,20.92
2019-04-06T11:26:47.723Z,20.43
2019-04-06T11:28:04.747Z,20.43
2019-04-06T11:29:35.188Z,21.07
2019-04-06T11:30:49.464Z,20.23
2019-04-06T11:32:00.887Z,22.73
2019-04-06T11:33:21.271Z,21.68
2019-04-06T11:34:49.010Z,21.10
2019-04-06T11:36:27.984Z,22.00
2019-04-06T11:37:50.388Z,20.48
2019-04-06T11:39:13.007Z,21.68
2019-04-06T11:40:37.119Z,19.95
2019-04-06T11:41:55.784Z,21.57
2019-04-06T11:43:15.319Z,20.08
2019-04-06T11:44:26.851Z,21.05
2019-04-06T11:45:56.616Z,20.12
2019-04-06T11:47:20.460Z,21.87
2019-04-06T11:48:47.773Z,22.10
2019-04-06T11:50:24.301Z,21.80
2019-04-06T11:51:48.145Z,21.30
2019-04-06T11:53:09.013Z,20.92
2019-04-06T11:54:30.027Z,19.85
2019-04-06T11:55:53.075Z,20.95
2019-04-06T11:57:05.950Z,19.98
2019-04-06T11:58:35.738Z,19.45
2019-04-06T11:59:58.581Z,20.15
2019-04-06T12:01:22.664Z,20.80
2019-04-06T12:02:44.801Z,20.02
2019-04-06T12:04:07.172Z,20.23
2019-04-06T12:05:21.889Z,19.50
2019-04-06T12:06:43.867Z,20.77
2019-04-06T12:07:59.158Z,21.20
2019-04-06T12:09:22.606Z,21.27
2019-04-06T12:10:45.420Z,20.23
2019-04-06T12:12:15.417Z,19.67
2019-04-06T12:13:36.594Z,19.00
2019-04-06T12:14:49.638Z,20.23
2019-04-06T12:16:13.397Z,20.62
2019-04-06T12:17:49.847Z,21.62
2019-04-06T12:19:00.697Z,20.52
2019-04-06T12:20:27.543Z,20.85
2019-04-06T12:21:43.974Z,20.75
2019-04-06T12:23:17.539Z,19.52
2019-04-06T12:24:40.238Z,21.20
2019-04-06T12:26:16.385Z,19.60
2019-04-06T12:27:49.283Z,20.27
2019-04-06T12:29:19.065Z,20.88
2019-04-06T12:30:37.278Z,19.42
2019-04-06T12:31:45.474Z,19.50
2019-04-06T12:33:04.104Z,19.45
2019-04-06T12:34:15.830Z,19.27
2019-04-06T12:35:39.053Z,19.77
2019-04-06T12:37:01.023Z,20.37
2019-04-06T12:38:26.630Z,18.45
2019-04-06T12:39:51.813Z,18.57
2019-04-06T12:41:12.208Z,19.10
2019-04-06T12:42:39.379Z,17.67
2019-04-06T12:44:02.183Z,18.55
2019-04-06T12:45:22.161Z,16.82
2019-04-06T12:46:58.780Z,16.82
2019-04-06T12:48:21.570Z,17.50
2019-04-06T12:49:45.402Z,16.60
2019-04-06T12:51:07.904Z,18.07
2019-04-06T12:52:32.641Z,15.00
2019-04-06T12:53:46.792Z,16.90
2019-04-06T12:55:20.067Z,15.30
2019-04-06T12:56:36.747Z,16.35
2019-04-06T12:57:50.621Z,15.98
2019-04-06T12:59:14.638Z,14.50
2019-04-06T13:00:29.762Z,17.92
2019-04-06T13:01:56.431Z,16.30
2019-04-06T13:03:18.905Z,15.23
2019-04-06T13:04:42.370Z,15.48
2019-04-06T13:05:57.384Z,16.42
2019-04-06T13:07:27.940Z,16.02
2019-04-06T13:08:44.746Z,15.48
2019-04-06T13:10:07.749Z,16.75
2019-04-06T13:11:44.529Z,15.60
2019-04-06T13:13:14.482Z,16.00
2019-04-06T13:14:38.066Z,16.15
2019-04-06T13:16:20.234Z,16.48
2019-04-06T13:17:50.260Z,15.80
2019-04-06T13:19:17.273Z,16.67
2019-04-06T13:20:47.437Z,16.15
2019-04-06T13:22:03.207Z,17.37
2019-04-06T13:23:27.085Z,17.95
2019-04-06T13:24:53.872Z,16.55
2019-04-06T13:26:21.053Z,16.32
2019-04-06T13:27:32.654Z,16.15
2019-04-06T13:28:54.866Z,16.32
2019-04-06T13:30:20.917Z,15.90
2019-04-06T13:31:51.213Z,15.98
2019-04-06T13:33:33.856Z,15.75
2019-04-06T13:35:06.800Z,15.45
2019-04-06T13:36:31.203Z,16.90
2019-04-06T13:37:54.721Z,14.53
2019-04-06T13:39:10.258Z,16.15
2019-04-06T13:40:36.686Z,15.80
2019-04-06T13:42:04.635Z,15.63
2019-04-06T13:43:21.151Z,16.67
2019-04-06T13:44:38.756Z,17.95
2019-04-06T13:46:05.837Z,17.55
2019-04-06T13:47:18.388Z,15.30
2019-04-06T13:48:45.206Z,15.32
2019-04-06T13:49:57.930Z,16.23
2019-04-06T13:51:08.820Z,17.57
2019-04-06T13:52:36.339Z,15.98
2019-04-06T13:54:03.470Z,16.45
2019-04-06T13:55:27.549Z,16.30
2019-04-06T13:56:47.369Z,15.93
2019-04-06T13:58:09.231Z,15.40
2019-04-06T13:59:36.482Z,16.80
2019-04-06T14:00:51.868Z,15.28
2019-04-06T14:02:15.292Z,15.30
2019-04-06T14:03:31.127Z,15.85
2019-04-06T14:05:00.799Z,16.32
2019-04-06T14:06:33.652Z,16.20
2019-04-06T14:08:03.482Z,15.48
2019-04-06T14:09:18.861Z,15.35
2019-04-06T14:10:40.401Z,15.53
2019-04-06T14:12:07.578Z,16.45
2019-04-06T14:13:37.143Z,16.32
2019-04-06T14:15:13.142Z,15.95
2019-04-06T14:16:26.623Z,15.88
2019-04-06T14:17:40.783Z,15.28
2019-04-06T14:19:10.966Z,15.45
2019-04-06T14:20:37.832Z,15.95
2019-04-06T14:22:13.959Z,16.40
2019-04-06T14:23:40.783Z,14.38
2019-04-06T14:25:07.358Z,14.98
2019-04-06T14:26:30.938Z,15.18
2019-04-06T14:27:57.958Z,14.47
2019-04-06T14:29:07.432Z,14.65
2019-04-06T14:30:25.714Z,15.40
2019-04-06T14:31:43.192Z,13.40
2019-04-06T14:33:06.807Z,12.95
2019-04-06T14:34:36.493Z,13.60
2019-04-06T14:36:09.678Z,12.95
2019-04-06T14:37:31.122Z,13.60
2019-04-06T14:39:01.018Z,13.48
2019-04-06T14:40:23.756Z,12.05
2019-04-06T14:41:46.074Z,12.63
2019-04-06T14:43:07.165Z,17.07
2019-04-06T14:44:42.790Z,16.42
2019-04-06T14:46:05.806Z,17.25
2019-04-06T14:47:22.093Z,16.55
2019-04-06T14:48:56.602Z,17.00
2019-04-06T14:50:29.894Z,17.07
2019-04-06T14:52:57.439Z,16.85
2019-04-06T14:54:14.306Z,16.62
2019-04-06T14:57:50.385Z,16.75
2019-04-06T14:59:12.535Z,17.17
2019-04-06T15:00:28.730Z,18.07
2019-04-06T15:01:58.254Z,16.75
2019-04-06T15:03:20.555Z,18.02
2019-04-06T15:04:42.365Z,17.70
2019-04-06T15:06:32.842Z,19.42
2019-04-06T15:08:24.183Z,18.20
2019-04-06T15:10:06.182Z,18.05
2019-04-06T15:11:21.739Z,17.10
2019-04-06T15:13:59.612Z,18.10
2019-04-06T15:15:38.457Z,18.48
2019-04-06T15:23:03.749Z,17.10
2019-04-06T15:24:37.385Z,18.15
2019-04-06T15:26:38.145Z,19.73
2019-04-06T15:28:14.308Z,18.67
2019-04-06T15:32:08.392Z,17.40